^^
Datos históricos de la estación: Murcia-Puente Tocinos
Diario Informe para Junio 17, 2019 Unidades:  Métrico    Ingés   Ambas
Diario Semanal Mensual Anual
  Máxima: Mínima: Promedio:
Temperatura: 35.9 °C 23.1 °C 28.5 °C
Punto de rocio: 22.4 °C 15.6 °C 20 °C
Humedad: 89% 31.9% 64%
Velocidad viento: 17.2km/h 0km/h 7.4km/h
Racha viento: 32.2km/h - -
Viento- - ESE
Presión: 1015.0 hPa 1010.0 hPa -
Precipitación: 0.0 mm    
 
 
Tabla de datos para Junio 17, 2019
Hora Temperatura Punto de rocio Presión Viento Velocidad viento Racha viento Humedad Intensidad lluvia(por hora) Nubes
00:04 25.1 °C 22.4 °C 1015.0 hPa NNE 10.3 km/h 16.1 km/h 85% 0.0 mm
00:09 25.1 °C 22.4 °C 1015.0 hPa NNE 10.1 km/h 14.5 km/h 85% 0.0 mm
00:14 25 °C 22.3 °C 1015.0 hPa NE 9.5 km/h 12.9 km/h 85% 0.0 mm
00:19 24.9 °C 22.2 °C 1015.0 hPa NE 9.2 km/h 13 km/h 85% 0.0 mm
00:24 24.9 °C 22.2 °C 1014.9 hPa NE 8.4 km/h 14.8 km/h 85% 0.0 mm
00:29 24.8 °C 22.3 °C 1014.9 hPa NE 8.7 km/h 14.5 km/h 85.9% 0.0 mm
00:34 24.8 °C 22.3 °C 1014.9 hPa NE 9.5 km/h 14.5 km/h 86% 0.0 mm
00:39 24.8 °C 22.3 °C 1014.9 hPa NE 9.2 km/h 13.7 km/h 86% 0.0 mm
00:44 24.7 °C 22.2 °C 1014.9 hPa NE 8.4 km/h 14.5 km/h 86% 0.0 mm
00:49 24.7 °C 22.2 °C 1015.0 hPa NE 8.5 km/h 14.5 km/h 86% 0.0 mm
00:54 24.7 °C 22.4 °C 1015.0 hPa NE 8.7 km/h 14.5 km/h 86.9% 0.0 mm
00:59 24.7 °C 22.4 °C 1015.0 hPa NE 9 km/h 14.8 km/h 87% 0.0 mm
01:04 24.7 °C 22.4 °C 1015.0 hPa NE 9.5 km/h 14.5 km/h 87% 0.0 mm
01:09 24.7 °C 22.4 °C 1014.9 hPa NE 9.3 km/h 13.7 km/h 87% 0.0 mm
01:14 24.7 °C 22.4 °C 1014.9 hPa NE 8.7 km/h 14.5 km/h 87% 0.0 mm
01:19 24.6 °C 22.3 °C 1014.9 hPa NE 8.6 km/h 13 km/h 87% 0.0 mm
01:24 24.6 °C 22.3 °C 1014.8 hPa NE 8.4 km/h 13 km/h 87% 0.0 mm
01:29 24.6 °C 22.3 °C 1014.8 hPa NE 8.1 km/h 11.3 km/h 87% 0.0 mm
01:34 24.6 °C 22.3 °C 1014.8 hPa NE 7.6 km/h 13 km/h 87.2% 0.0 mm
01:39 24.5 °C 22.4 °C 1014.8 hPa NE 7.9 km/h 13.7 km/h 88% 0.0 mm
01:44 24.4 °C 22.3 °C 1014.8 hPa NE 8.7 km/h 14.5 km/h 88% 0.0 mm
01:49 24.4 °C 22.3 °C 1014.8 hPa NE 8.6 km/h 12.9 km/h 88% 0.0 mm
01:54 24.4 °C 22.3 °C 1014.8 hPa NE 8.4 km/h 11.3 km/h 88% 0.0 mm
01:59 24.3 °C 22.2 °C 1014.8 hPa NE 7.8 km/h 11.3 km/h 88% 0.0 mm
02:04 24.3 °C 22.2 °C 1014.8 hPa NE 6.5 km/h 11.3 km/h 88% 0.0 mm
02:09 24.2 °C 22.1 °C 1014.6 hPa NE 6.6 km/h 11.3 km/h 88.1% 0.0 mm
02:14 24.2 °C 22.3 °C 1014.6 hPa NE 6.9 km/h 10 km/h 89% 0.0 mm
02:19 24.2 °C 22.3 °C 1014.6 hPa NE 6.8 km/h 10 km/h 89% 0.0 mm
02:24 24.2 °C 22.3 °C 1014.6 hPa NE 6.5 km/h 9.7 km/h 89% 0.0 mm
02:29 24.2 °C 22.3 °C 1014.6 hPa NE 6.3 km/h 9.7 km/h 89% 0.0 mm
02:34 24.2 °C 22.3 °C 1014.6 hPa NE 5.8 km/h 9.7 km/h 89% 0.0 mm
02:39 24.3 °C 22.3 °C 1014.6 hPa NE 5.3 km/h 8 km/h 88.5% 0.0 mm
02:44 24.2 °C 22.1 °C 1014.6 hPa NE 3.9 km/h 9.7 km/h 88% 0.0 mm
02:49 24.2 °C 22.2 °C 1014.6 hPa NE 4.4 km/h 9.7 km/h 88.5% 0.0 mm
02:54 24.2 °C 22.3 °C 1014.5 hPa NE 5.8 km/h 9.7 km/h 89% 0.0 mm
02:59 24.1 °C 22.2 °C 1014.5 hPa NE 5.8 km/h 9.7 km/h 89% 0.0 mm
03:04 24.1 °C 22.2 °C 1014.5 hPa NE 5.8 km/h 9.7 km/h 89% 0.0 mm
03:09 24.1 °C 22.1 °C 1014.5 hPa ENE 4.9 km/h 8 km/h 89% 0.0 mm
03:14 24.1 °C 22.1 °C 1014.5 hPa NE 2.9 km/h 4.8 km/h 89% 0.0 mm
03:19 24.1 °C 22.2 °C 1014.5 hPa NNE 2.1 km/h 3.2 km/h 89% 0.0 mm
03:24 24.1 °C 22.1 °C 1014.4 hPa Calm   6.4 km/h 89% 0.0 mm
03:29 24.1 °C 22.2 °C 1014.4 hPa NNO 0.8 km/h 8 km/h 89% 0.0 mm
03:34 24.1 °C 22.1 °C 1014.4 hPa NNO 2.9 km/h 3.2 km/h 89% 0.0 mm
03:39 24 °C 22 °C 1014.3 hPa NNO 2.1 km/h   88.4% 0.0 mm
03:44 23.9 °C 21.9 °C 1014.3 hPa Calm     88.2% 0.0 mm
03:49 23.9 °C 21.8 °C 1014.3 hPa Calm   3.7 km/h 88% 0.0 mm
03:54 23.9 °C 21.8 °C 1014.2 hPa Calm   4.7 km/h 88% 0.0 mm
03:59 23.9 °C 21.8 °C 1014.2 hPa Calm   4.8 km/h 88% 0.0 mm
04:04 23.8 °C 21.7 °C 1014.2 hPa Calm     88% 0.0 mm
04:09 23.8 °C 21.7 °C 1014.2 hPa Calm     88% 0.0 mm
04:14 23.8 °C 21.7 °C 1014.2 hPa Calm   4.7 km/h 88% 0.0 mm
04:19 23.8 °C 21.7 °C 1014.2 hPa Calm   4.8 km/h 88% 0.0 mm
04:24 23.7 °C 21.6 °C 1014.1 hPa Calm   3.2 km/h 88% 0.0 mm
04:29 23.7 °C 21.6 °C 1014.1 hPa Calm     88% 0.0 mm
04:34 23.8 °C 21.7 °C 1014.1 hPa Calm     88% 0.0 mm
04:39 23.8 °C 21.5 °C 1013.9 hPa Calm     87.5% 0.0 mm
04:44 23.7 °C 21.4 °C 1013.9 hPa Calm   5.8 km/h 87% 0.0 mm
04:49 23.6 °C 21.2 °C 1013.9 hPa SE 0.8 km/h 7.4 km/h 86.4% 0.0 mm
04:54 23.6 °C 21.1 °C 1013.8 hPa SE 2.9 km/h 8 km/h 86% 0.0 mm
04:59 23.5 °C 21.2 °C 1013.8 hPa ESE 2.9 km/h 6.4 km/h 86.6% 0.0 mm
05:04 23.6 °C 21.3 °C 1013.8 hPa ESE 2.9 km/h 3.2 km/h 87% 0.0 mm
05:09 23.6 °C 21.3 °C 1013.7 hPa ESE 2 km/h 3.7 km/h 87% 0.0 mm
05:14 23.6 °C 21.2 °C 1013.7 hPa Calm   3.2 km/h 86.4% 0.0 mm
05:19 23.6 °C 21.1 °C 1013.7 hPa Calm     86% 0.0 mm
05:24 23.4 °C 21 °C 1013.7 hPa Calm     86% 0.0 mm
05:29 23.4 °C 20.9 °C 1013.7 hPa Calm     86% 0.0 mm
05:34 23.3 °C 20.8 °C 1013.7 hPa Calm   5 km/h 86% 0.0 mm
05:39 23.3 °C 20.8 °C 1013.7 hPa NO 0.6 km/h 5.6 km/h 86% 0.0 mm
05:44 23.3 °C 20.9 °C 1013.7 hPa NO 2.2 km/h 3.2 km/h 86.9% 0.0 mm
05:49 23.2 °C 20.9 °C 1013.7 hPa NO 1.6 km/h   87% 0.0 mm
05:54 23.2 °C 20.9 °C 1013.6 hPa Calm     87% 0.0 mm
05:59 23.2 °C 20.9 °C 1013.6 hPa Calm     87% 0.0 mm
06:04 23.2 °C 20.9 °C 1013.7 hPa Calm     87% 0.0 mm
06:09 23.1 °C 20.8 °C 1013.7 hPa Calm     87% 0.0 mm
06:14 23.2 °C 21.1 °C 1013.7 hPa Calm     87.9% 0.0 mm
06:19 23.2 °C 20.9 °C 1013.7 hPa Calm     87% 0.0 mm
06:24 23.1 °C 20.8 °C 1013.6 hPa Calm     87% 0.0 mm
06:29 23.1 °C 20.8 °C 1013.6 hPa Calm     87% 0.0 mm
06:34 23.1 °C 21 °C 1013.7 hPa Calm     87.9% 0.0 mm
06:39 23.2 °C 21 °C 1013.7 hPa Calm     87.7% 0.0 mm
06:44 23.2 °C 21 °C 1013.7 hPa Calm     87.5% 0.0 mm
06:49 23.2 °C 21.1 °C 1013.8 hPa Calm     88.1% 0.0 mm
06:54 23.3 °C 21.4 °C 1013.8 hPa Calm     89% 0.0 mm
06:59 23.3 °C 21.4 °C 1013.8 hPa Calm     89% 0.0 mm
07:04 23.3 °C 21.3 °C 1013.9 hPa Calm     88.6% 0.0 mm
07:09 23.3 °C 21.1 °C 1013.9 hPa Calm     87.6% 0.0 mm
07:14 23.2 °C 20.9 °C 1013.9 hPa Calm     87% 0.0 mm
07:19 23.2 °C 20.9 °C 1014.0 hPa Calm     87% 0.0 mm
07:24 23.2 °C 20.9 °C 1014.0 hPa Calm     87% 0.0 mm
07:29 23.3 °C 21 °C 1014.0 hPa Calm     87% 0.0 mm
07:34 23.3 °C 21 °C 1014.0 hPa Calm     87% 0.0 mm
07:39 23.3 °C 21 °C 1014.0 hPa Calm     87% 0.0 mm
07:44 23.4 °C 21.2 °C 1014.0 hPa Calm     87.8% 0.0 mm
07:49 23.4 °C 21.3 °C 1014.1 hPa Calm   5.6 km/h 88% 0.0 mm
07:54 23.5 °C 21.4 °C 1014.1 hPa Calm   4.8 km/h 88% 0.0 mm
07:59 23.4 °C 21.3 °C 1014.1 hPa NO 0.7 km/h 4.8 km/h 88% 0.0 mm
08:04 23.4 °C 21.4 °C 1014.2 hPa NO 2.2 km/h 4.8 km/h 88.3% 0.0 mm
08:09 23.4 °C 21.5 °C 1014.2 hPa NNO 1.6 km/h   88.8% 0.0 mm
08:14 23.5 °C 21.6 °C 1014.2 hPa Calm     88.8% 0.0 mm
08:19 23.6 °C 21.7 °C 1014.2 hPa Calm   4.7 km/h 89% 0.0 mm
08:24 23.7 °C 21.7 °C 1014.2 hPa Calm   4.8 km/h 89% 0.0 mm
08:29 23.8 °C 21.7 °C 1014.2 hPa Calm   4.8 km/h 88.4% 0.0 mm
08:34 23.9 °C 21.8 °C 1014.4 hPa Calm   5.8 km/h 88% 0.0 mm
08:39 24 °C 21.8 °C 1014.4 hPa Oeste 0.8 km/h 7.6 km/h 87.7% 0.0 mm
08:44 24.2 °C 21.8 °C 1014.4 hPa OSO 2.9 km/h 9.5 km/h 86.9% 0.0 mm
08:49 24.3 °C 21.9 °C 1014.5 hPa OSO 3.5 km/h 11.9 km/h 86% 0.0 mm
08:54 24.4 °C 21.8 °C 1014.5 hPa OSO 5 km/h 11.3 km/h 85.1% 0.0 mm
08:59 24.5 °C 21.7 °C 1014.5 hPa OSO 5.8 km/h 13 km/h 84.3% 0.0 mm
09:04 24.5 °C 21.6 °C 1014.5 hPa OSO 7.6 km/h 12.9 km/h 84.2% 0.0 mm
09:09 24.6 °C 21.8 °C 1014.5 hPa SO 7.2 km/h 11.3 km/h 84.7% 0.0 mm
09:14 24.6 °C 21.8 °C 1014.5 hPa OSO 6.5 km/h 13 km/h 84% 0.0 mm
09:19 24.7 °C 21.8 °C 1014.6 hPa OSO 6.6 km/h 12.9 km/h 84% 0.0 mm
09:24 24.7 °C 21.8 °C 1014.6 hPa OSO 6.9 km/h 11.3 km/h 84% 0.0 mm
09:29 24.8 °C 21.9 °C 1014.6 hPa SO 6.9 km/h 11.3 km/h 84% 0.0 mm
09:34 24.8 °C 21.9 °C 1014.7 hPa SSO 6.9 km/h 11.3 km/h 83.6% 0.0 mm
09:39 25 °C 21.9 °C 1014.7 hPa SO 6.4 km/h 10 km/h 82.7% 0.0 mm
09:44 25.2 °C 21.9 °C 1014.7 hPa SSO 5 km/h 11.9 km/h 82% 0.0 mm
09:49 25.2 °C 21.9 °C 1014.8 hPa SSO 5.4 km/h 11.3 km/h 82% 0.0 mm
09:54 25.3 °C 21.8 °C 1014.8 hPa Sur 6.5 km/h 12.2 km/h 81.3% 0.0 mm
09:59 25.3 °C 21.8 °C 1014.8 hPa SSO 6.6 km/h 13 km/h 80.7% 0.0 mm
10:04 25.3 °C 21.7 °C 1014.8 hPa SSO 6.9 km/h 12.9 km/h 80.3% 0.0 mm
10:09 25.4 °C 21.8 °C 1014.8 hPa SSO 6.8 km/h 11.3 km/h 80.5% 0.0 mm
10:14 25.6 °C 21.8 °C 1014.8 hPa SSO 6.5 km/h 10 km/h 79.6% 0.0 mm
10:19 25.8 °C 21.7 °C 1014.8 hPa SSO 6.3 km/h 10 km/h 78.4% 0.0 mm
10:24 25.9 °C 21.8 °C 1014.6 hPa Sur 5.8 km/h 9.7 km/h 78% 0.0 mm
10:29 26.2 °C 21.8 °C 1014.6 hPa SSO 5.5 km/h 9.5 km/h 76.8% 0.0 mm
10:34 26.3 °C 21.7 °C 1014.6 hPa Sur 4.7 km/h 9.7 km/h 75.9% 0.0 mm
10:39 26.5 °C 21.7 °C 1014.5 hPa SSO 4.7 km/h 8.4 km/h 74.6% 0.0 mm
10:44 26.7 °C 21.6 °C 1014.5 hPa NO 4.7 km/h 8 km/h 73.8% 0.0 mm
10:49 26.9 °C 21.7 °C 1014.5 hPa NO 4.2 km/h 8 km/h 73% 0.0 mm
10:54 27.2 °C 21.7 °C 1014.5 hPa NO 3.2 km/h 13 km/h 72% 0.0 mm
10:59 27.3 °C 21.5 °C 1014.5 hPa ONO 3.4 km/h 12.9 km/h 70.5% 0.0 mm
11:04 27.4 °C 21.2 °C 1014.5 hPa NNO 3.9 km/h 9.7 km/h 69% 0.0 mm
11:09 27.6 °C 21.2 °C 1014.5 hPa SSE 3.9 km/h 8 km/h 68.1% 0.0 mm
11:14 27.8 °C 20.9 °C 1014.5 hPa ESE 3.9 km/h 8 km/h 66.2% 0.0 mm
11:19 28.2 °C 20.7 °C 1014.5 hPa ONO 4.1 km/h 9.3 km/h 64.1% 0.0 mm
11:24 28.2 °C 20.4 °C 1014.4 hPa NO 4.7 km/h 9.7 km/h 62.4% 0.0 mm
11:29 28.6 °C 20.3 °C 1014.4 hPa NNO 4.2 km/h 7.4 km/h 60.9% 0.0 mm
11:34 29 °C 20.5 °C 1014.4 hPa ONO 2.9 km/h 8 km/h 60% 0.0 mm
11:39 29.5 °C 19.8 °C 1014.4 hPa Sur 3 km/h 8.7 km/h 56.1% 0.0 mm
11:44 29.7 °C 18.8 °C 1014.4 hPa NNO 3.2 km/h 9.7 km/h 52% 0.0 mm
11:49 29.9 °C 18.4 °C 1014.4 hPa NE 3.6 km/h 13 km/h 50% 0.0 mm
11:54 30.2 °C 18.2 °C 1014.3 hPa NNE 4.7 km/h 12.9 km/h 48.7% 0.0 mm
11:59 30.3 °C 18.1 °C 1014.3 hPa ENE 5.2 km/h 13 km/h 48% 0.0 mm
12:04 30.3 °C 18.4 °C 1014.3 hPa NE 6.5 km/h 12.9 km/h 48.9% 0.0 mm
12:09 30.5 °C 18.7 °C 1014.2 hPa NE 5.8 km/h 11.3 km/h 49.3% 0.0 mm
12:14 30.8 °C 19.2 °C 1014.2 hPa NE 3.9 km/h 16.7 km/h 49.9% 0.0 mm
12:19 30.8 °C 18.9 °C 1014.2 hPa NE 4.9 km/h 16.1 km/h 49.3% 0.0 mm
12:24 30.8 °C 18.9 °C 1014.1 hPa NE 7.6 km/h 16.7 km/h 49.1% 0.0 mm
12:29 31 °C 19.4 °C 1014.1 hPa NNE 7.4 km/h 16.1 km/h 50.2% 0.0 mm
12:34 31.1 °C 19.4 °C 1014.1 hPa North 6.9 km/h 17.2 km/h 49.7% 0.0 mm
12:39 31.2 °C 19.4 °C 1013.8 hPa NNE 7.1 km/h 17.7 km/h 49.5% 0.0 mm
12:44 31.3 °C 19.3 °C 1013.8 hPa NNE 7.6 km/h 17.7 km/h 49% 0.0 mm
12:49 31.4 °C 19.2 °C 1013.8 hPa North 7.9 km/h 14.8 km/h 48.5% 0.0 mm
12:54 31.7 °C 19 °C 1013.7 hPa ENE 8.7 km/h 14.5 km/h 47% 0.0 mm
12:59 32.1 °C 18.7 °C 1013.7 hPa NE 8.1 km/h 14.8 km/h 45.3% 0.0 mm
13:04 32.4 °C 18 °C 1013.7 hPa NNE 6.9 km/h 14.8 km/h 42.5% 0.0 mm
13:09 32.6 °C 18.2 °C 1013.5 hPa NNE 7.5 km/h 16.7 km/h 42.5% 0.0 mm
13:14 32.8 °C 18.3 °C 1013.5 hPa NE 8.7 km/h 16.1 km/h 42.2% 0.0 mm
13:19 33.1 °C 18.5 °C 1013.5 hPa NE 8.1 km/h 14.8 km/h 42% 0.0 mm
13:24 33.3 °C 17.6 °C 1013.3 hPa Este 6.5 km/h 16.7 km/h 39.3% 0.0 mm
13:29 33.7 °C 17.3 °C 1013.3 hPa ENE 7 km/h 16.7 km/h 37.7% 0.0 mm
13:34 33.8 °C 15.9 °C 1013.3 hPa ESE 8.4 km/h 16.7 km/h 34.4% 0.0 mm
13:39 34.2 °C 17 °C 1013.1 hPa ENE 8.4 km/h 16.1 km/h 36.1% 0.0 mm
13:44 34.3 °C 16.1 °C 1013.1 hPa ENE 8.7 km/h 14.5 km/h 33.8% 0.0 mm
13:49 34.4 °C 15.7 °C 1013.1 hPa ENE 8.4 km/h 12.9 km/h 32.8% 0.0 mm
13:54 34.6 °C 15.7 °C 1013.0 hPa ENE 7.6 km/h 14.8 km/h 32.4% 0.0 mm
13:59 34.7 °C 15.8 °C 1013.0 hPa NE 8.2 km/h 14.8 km/h 32.5% 0.0 mm
14:04 34.7 °C 15.7 °C 1013.0 hPa Este 9.5 km/h 21.7 km/h 32.1% 0.0 mm
14:09 34.7 °C 15.6 °C 1012.8 hPa Este 9.5 km/h 22.5 km/h 31.9% 0.0 mm
14:14 34.7 °C 15.6 °C 1012.8 hPa Este 9.5 km/h 20.9 km/h 32.1% 0.0 mm
14:19 34.8 °C 16.1 °C 1012.8 hPa ESE 9.7 km/h 22.2 km/h 33% 0.0 mm
14:24 34.8 °C 16.3 °C 1012.7 hPa Este 10.3 km/h 22.5 km/h 33.3% 0.0 mm
14:29 34.8 °C 16.3 °C 1012.7 hPa ENE 10.2 km/h 19.3 km/h 33.3% 0.0 mm
14:34 35 °C 16.8 °C 1012.7 hPa ESE 10 km/h 20.9 km/h 34.1% 0.0 mm
14:39 35 °C 16.8 °C 1012.6 hPa ENE 9.8 km/h 20.9 km/h 34.2% 0.0 mm
14:44 35.1 °C 17 °C 1012.6 hPa ENE 9.5 km/h 24.1 km/h 34.4% 0.0 mm
14:49 35.2 °C 17.5 °C 1012.6 hPa Este 9.5 km/h 24.1 km/h 35% 0.0 mm
14:54 35.4 °C 17.5 °C 1012.3 hPa Este 9.5 km/h 16.7 km/h 34.8% 0.0 mm
14:59 35.6 °C 17.3 °C 1012.3 hPa Este 9.3 km/h 16.1 km/h 34.2% 0.0 mm
15:04 35.7 °C 17.2 °C 1012.3 hPa NE 8.7 km/h 17.2 km/h 33.6% 0.0 mm
15:09 35.6 °C 17.5 °C 1012.2 hPa Este 8.4 km/h 17.7 km/h 34.3% 0.0 mm
15:14 35.7 °C 17.4 °C 1012.2 hPa Este 7.6 km/h 16.1 km/h 34% 0.0 mm
15:19 35.7 °C 17.6 °C 1012.2 hPa NNE 7.4 km/h 14.8 km/h 34.5% 0.0 mm
15:24 35.8 °C 18.2 °C 1012.0 hPa SE 6.9 km/h 22.2 km/h 35.5% 0.0 mm
15:29 35.7 °C 18.1 °C 1012.0 hPa SE 7.6 km/h 22.5 km/h 35.5% 0.0 mm
15:34 35.7 °C 18 °C 1012.0 hPa ESE 9.5 km/h 19.3 km/h 35.2% 0.0 mm
15:39 35.7 °C 18.3 °C 1011.8 hPa SE 9.2 km/h 20.9 km/h 35.9% 0.0 mm
15:44 35.8 °C 18.6 °C 1011.8 hPa ESE 8.4 km/h 20.9 km/h 36.3% 0.0 mm
15:49 35.8 °C 18.6 °C 1011.8 hPa SE 9.4 km/h 22.2 km/h 36.5% 0.0 mm
15:54 35.7 °C 18.7 °C 1011.6 hPa SE 11.9 km/h 22.5 km/h 36.8% 0.0 mm
15:59 35.7 °C 18.8 °C 1011.6 hPa ESE 12.8 km/h 25.9 km/h 37% 0.0 mm
16:04 35.7 °C 18.7 °C 1011.6 hPa SE 14.8 km/h 25.7 km/h 36.8% 0.0 mm
16:09 35.7 °C 18.5 °C 1011.4 hPa ESE 14.3 km/h 24.1 km/h 36.2% 0.0 mm
16:14 35.7 °C 18.8 °C 1011.4 hPa SE 13 km/h 23.7 km/h 37% 0.0 mm
16:19 35.7 °C 18.5 °C 1011.4 hPa ESE 13.5 km/h 24.1 km/h 36.4% 0.0 mm
16:24 35.7 °C 18.5 °C 1011.3 hPa SE 14.8 km/h 22.2 km/h 36.4% 0.0 mm
16:29 35.9 °C 19.1 °C 1011.3 hPa ESE 14.1 km/h 25.9 km/h 37.5% 0.0 mm
16:34 35.9 °C 19.1 °C 1011.3 hPa SE 12.2 km/h 25.7 km/h 37.5% 0.0 mm
16:39 35.8 °C 19.4 °C 1011.1 hPa ESE 12.6 km/h 28.2 km/h 38.5% 0.0 mm
16:44 35.7 °C 19.5 °C 1011.1 hPa SE 13.7 km/h 27.4 km/h 38.8% 0.0 mm
16:49 35.8 °C 20.2 °C 1011.1 hPa SE 13.7 km/h 25.1 km/h 40.1% 0.0 mm
16:54 35.8 °C 20.2 °C 1011.0 hPa ESE 13.7 km/h 25.9 km/h 40.3% 0.0 mm
16:59 35.6 °C 20.4 °C 1011.0 hPa ESE 14.5 km/h 29.6 km/h 41.2% 0.0 mm
17:04 35.5 °C 20.4 °C 1011.0 hPa SE 16.4 km/h 29 km/h 41.4% 0.0 mm
17:09 35.5 °C 20.4 °C 1010.8 hPa SE 16.2 km/h 27.8 km/h 41.6% 0.0 mm
17:14 35.3 °C 20.7 °C 1010.8 hPa ESE 15.6 km/h 27.4 km/h 42.7% 0.0 mm
17:19 35.3 °C 20.8 °C 1010.8 hPa ESE 15.6 km/h 29.8 km/h 43% 0.0 mm
17:24 35 °C 20.5 °C 1010.8 hPa ESE 15.6 km/h 30.6 km/h 43% 0.0 mm
17:29 34.9 °C 20.4 °C 1010.8 hPa ESE 16 km/h 30.6 km/h 42.8% 0.0 mm
17:34 34.8 °C 20.1 °C 1010.8 hPa ESE 17.2 km/h 27.8 km/h 42.3% 0.0 mm
17:39 34.7 °C 19.6 °C 1010.8 hPa ESE 17.2 km/h 27.8 km/h 41.3% 0.0 mm
17:44 34.8 °C 19.5 °C 1010.8 hPa ESE 17.2 km/h 27.4 km/h 40.7% 0.0 mm
17:49 35 °C 19.3 °C 1010.8 hPa ESE 15.7 km/h 22.5 km/h 39.7% 0.0 mm
17:54 35.1 °C 19 °C 1010.7 hPa Este 12.2 km/h 20.9 km/h 38.8% 0.0 mm
17:59 35.1 °C 18.7 °C 1010.7 hPa ESE 12.5 km/h 23.7 km/h 38.1% 0.0 mm
18:04 35 °C 18.3 °C 1010.7 hPa ESE 13 km/h 24.5 km/h 37.3% 0.0 mm
18:09 34.8 °C 18.2 °C 1010.7 hPa ESE 13.9 km/h 24.1 km/h 37.4% 0.0 mm
18:14 34.8 °C 18.4 °C 1010.7 hPa ESE 16.1 km/h 28.2 km/h 38% 0.0 mm
18:19 34.7 °C 18.3 °C 1010.7 hPa ESE 16.2 km/h 27.4 km/h 38% 0.0 mm
18:24 34.7 °C 18.3 °C 1010.4 hPa ESE 16.4 km/h 26.2 km/h 38% 0.0 mm
18:29 34.6 °C 18.2 °C 1010.4 hPa ESE 16.2 km/h 25.7 km/h 37.9% 0.0 mm
18:34 34.7 °C 17.9 °C 1010.5 hPa ESE 15.6 km/h 24.1 km/h 37.1% 0.0 mm
18:39 34.6 °C 18.2 °C 1010.5 hPa ESE 15.6 km/h 24.1 km/h 38% 0.0 mm
18:44 34.5 °C 17.7 °C 1010.5 hPa SE 15.6 km/h 24.5 km/h 37% 0.0 mm
18:49 34.6 °C 17.8 °C 1010.5 hPa ESE 15.2 km/h 24.1 km/h 37.1% 0.0 mm
18:54 34.7 °C 17.9 °C 1010.2 hPa ESE 14 km/h 22.5 km/h 37% 0.0 mm
18:59 34.6 °C 17.9 °C 1010.2 hPa ESE 12.9 km/h 20.9 km/h 37.3% 0.0 mm
19:04 34.5 °C 18.1 °C 1010.2 hPa ESE 10.3 km/h 22.5 km/h 37.9% 0.0 mm
19:09 34.3 °C 18 °C 1010.2 hPa ESE 11.3 km/h 24.1 km/h 38.2% 0.0 mm
19:14 34.2 °C 18.2 °C 1010.2 hPa ESE 13.7 km/h 24.1 km/h 38.9% 0.0 mm
19:19 34 °C 18.1 °C 1010.2 hPa Este 13.7 km/h 24.1 km/h 39% 0.0 mm
19:24 34 °C 18.1 °C 1010.1 hPa Este 13.7 km/h 20.9 km/h 39% 0.0 mm
19:29 33.9 °C 18 °C 1010.1 hPa Este 12.7 km/h 17.7 km/h 39% 0.0 mm
19:34 33.8 °C 18 °C 1010.1 hPa Este 10.3 km/h 16.1 km/h 39.1% 0.0 mm
19:39 33.8 °C 18 °C 1010.0 hPa Este 9.9 km/h 14.8 km/h 39.2% 0.0 mm
19:44 33.7 °C 17.8 °C 1010.0 hPa NE 8.7 km/h 22.2 km/h 39% 0.0 mm
19:49 33.4 °C 17.4 °C 1010.0 hPa NE 9.4 km/h 31.5 km/h 38.5% 0.0 mm
19:54 33.1 °C 17.4 °C 1010.0 hPa NE 11.1 km/h 32.2 km/h 39.3% 0.0 mm
19:59 32.7 °C 18.2 °C 1010.0 hPa NE 12.6 km/h 27.4 km/h 42.1% 0.0 mm
20:04 32.2 °C 18.4 °C 1010.0 hPa NE 16.1 km/h 25.9 km/h 44.1% 0.0 mm
20:09 31.8 °C 18.4 °C 1010.0 hPa NE 16 km/h 25.7 km/h 45% 0.0 mm
20:14 31.6 °C 18.6 °C 1010.0 hPa NE 15.6 km/h 24.1 km/h 46% 0.0 mm
20:19 31.3 °C 18.6 °C 1010.1 hPa NNE 15.4 km/h 24.1 km/h 46.8% 0.0 mm
20:24 31.2 °C 18.6 °C 1010.1 hPa NE 14.8 km/h 24.5 km/h 47.3% 0.0 mm
20:29 30.9 °C 18.6 °C 1010.1 hPa NE 14.3 km/h 24.1 km/h 48% 0.0 mm
20:34 30.7 °C 18.6 °C 1010.2 hPa NE 13 km/h 24.1 km/h 48.5% 0.0 mm
20:39 30.6 °C 18.6 °C 1010.2 hPa NE 13.3 km/h 24.1 km/h 49% 0.0 mm
20:44 30.4 °C 18.5 °C 1010.2 hPa NE 14 km/h 22.2 km/h 49% 0.0 mm
20:49 30.2 °C 18.3 °C 1010.3 hPa NE 13.7 km/h 22.5 km/h 49% 0.0 mm
20:54 30 °C 18.2 °C 1010.3 hPa NE 13 km/h 19.3 km/h 49.3% 0.0 mm
20:59 29.8 °C 18.3 °C 1010.3 hPa NE 12.1 km/h 20.1 km/h 50% 0.0 mm
21:04 29.6 °C 18.4 °C 1010.4 hPa NE 10 km/h 20.9 km/h 51% 0.0 mm
21:09 29.5 °C 18.5 °C 1010.4 hPa NE 10 km/h 18.5 km/h 51.9% 0.0 mm
21:14 29.4 °C 18.7 °C 1010.4 hPa NE 10 km/h 22.2 km/h 52.6% 0.0 mm
21:19 29.2 °C 18.7 °C 1010.6 hPa NE 10 km/h 22.5 km/h 53% 0.0 mm
21:24 29.2 °C 18.6 °C 1010.6 hPa ENE 10 km/h 14.5 km/h 53% 0.0 mm
21:29 29 °C 18.7 °C 1010.6 hPa NE 9.1 km/h 14.5 km/h 53.8% 0.0 mm
21:34 28.8 °C 18.6 °C 1010.8 hPa NE 6.9 km/h 17.2 km/h 54% 0.0 mm
21:39 28.7 °C 18.8 °C 1010.8 hPa NE 7.6 km/h 19.8 km/h 55% 0.0 mm
21:44 28.5 °C 19.2 °C 1010.8 hPa NE 9.5 km/h 20.9 km/h 57.1% 0.0 mm
21:49 28.3 °C 19.7 °C 1011.0 hPa NE 10.3 km/h 20.9 km/h 59.6% 0.0 mm
21:54 28.2 °C 19.8 °C 1011.0 hPa NE 12.2 km/h 20.9 km/h 60.4% 0.0 mm
21:59 28.1 °C 19.6 °C 1011.0 hPa NE 12.2 km/h 24.1 km/h 60.1% 0.0 mm
22:04 28.1 °C 19.6 °C 1011.0 hPa NE 12.2 km/h 24.1 km/h 59.8% 0.0 mm
22:09 28.1 °C 19.2 °C 1011.0 hPa NE 12.7 km/h 24.1 km/h 58.7% 0.0 mm
22:14 28.1 °C 18.9 °C 1011.0 hPa NE 13.7 km/h 24.1 km/h 57.5% 0.0 mm
22:19 28.1 °C 18.6 °C 1011.2 hPa NE 13.7 km/h 20.9 km/h 56.3% 0.0 mm
22:24 28.1 °C 18.5 °C 1011.2 hPa NE 13.7 km/h 20.9 km/h 56% 0.0 mm
22:29 28.1 °C 18.3 °C 1011.2 hPa NE 13.2 km/h 19.3 km/h 55.4% 0.0 mm
22:34 28 °C 18.1 °C 1011.4 hPa NE 11.9 km/h 16.1 km/h 55% 0.0 mm
22:39 28 °C 18.1 °C 1011.4 hPa NE 11 km/h 16.7 km/h 55% 0.0 mm
22:44 27.9 °C 18 °C 1011.4 hPa NE 8.7 km/h 16.1 km/h 55% 0.0 mm
22:49 27.8 °C 18 °C 1011.5 hPa NE 8.7 km/h 16.1 km/h 55% 0.0 mm
22:54 27.8 °C 18 °C 1011.5 hPa NE 8.7 km/h 16.1 km/h 55.4% 0.0 mm
22:59 27.7 °C 18.1 °C 1011.5 hPa NE 9.1 km/h 15.6 km/h 56% 0.0 mm
23:04 27.6 °C 18.2 °C 1011.7 hPa NE 10 km/h 16.1 km/h 56.6% 0.0 mm
23:09 27.4 °C 18.2 °C 1011.7 hPa NE 9.5 km/h 14.5 km/h 57.2% 0.0 mm
23:14 27.3 °C 18.5 °C 1011.7 hPa NE 8.4 km/h 12.9 km/h 58.4% 0.0 mm
23:19 27.2 °C 19.3 °C 1011.7 hPa NE 8.1 km/h 14.8 km/h 61.9% 0.0 mm
23:24 27.1 °C 19.3 °C 1011.7 hPa NE 7.6 km/h 14.5 km/h 62.8% 0.0 mm
23:29 26.9 °C 19.7 °C 1011.7 hPa NNE 7.8 km/h 12.9 km/h 64.7% 0.0 mm
23:34 26.8 °C 19.7 °C 1011.7 hPa NE 8.4 km/h 14.8 km/h 65.2% 0.0 mm
23:39 26.7 °C 20 °C 1011.7 hPa NE 8.7 km/h 14.5 km/h 66.8% 0.0 mm
23:44 26.6 °C 20.4 °C 1011.7 hPa NNE 9.5 km/h 14.5 km/h 68.8% 0.0 mm
23:49 26.4 °C 20.8 °C 1011.8 hPa NNE 9.2 km/h 14.8 km/h 71.3% 0.0 mm
23:54 26.3 °C 21.2 °C 1011.8 hPa NNE 8.4 km/h 14.5 km/h 73.5% 0.0 mm
23:59 26.2 °C 21.4 °C 1011.8 hPa NE 8.5 km/h 14.5 km/h 75.1% 0.0 mm
Murcia-Puente Tocinos, Espa?a
Compliments of Weather Underground - 3 mb

La estación de MeteoMurcia.com, publica sus datos en los siguientes proyectos:

Weather Underground PWS IMURCIAP2 Meteoclimatic www.awekas.at

Web Analytics

Clicky